createdAt,value
2018-02-21T00:00:29.307Z,73.10
2018-02-21T00:02:56.360Z,73.30
2018-02-21T00:05:23.501Z,73.10
2018-02-21T00:07:50.555Z,72.90
2018-02-21T00:10:17.588Z,73.90
2018-02-21T00:12:44.049Z,73.70
2018-02-21T00:15:10.391Z,73.30
2018-02-21T00:17:36.718Z,73.10
2018-02-21T00:20:03.888Z,73.00
2018-02-21T00:22:30.162Z,72.40
2018-02-21T00:24:56.489Z,73.30
2018-02-21T00:27:23.508Z,73.30
2018-02-21T00:29:49.868Z,71.40
2018-02-21T00:32:16.919Z,73.00
2018-02-21T00:34:43.257Z,72.70
2018-02-21T00:37:10.271Z,73.20
2018-02-21T00:39:36.534Z,73.10
2018-02-21T00:42:03.568Z,73.60
2018-02-21T00:44:29.832Z,73.50
2018-02-21T00:46:56.129Z,73.70
2018-02-21T00:49:22.415Z,73.10
2018-02-21T00:51:48.688Z,73.90
2018-02-21T00:54:15.000Z,73.60
2018-02-21T00:56:41.277Z,74.00
2018-02-21T00:59:08.327Z,73.80
2018-02-21T01:01:34.626Z,74.00
2018-02-21T01:04:01.000Z,73.60
2018-02-21T01:06:27.271Z,73.70
2018-02-21T01:08:53.531Z,74.30
2018-02-21T01:11:20.563Z,73.80
2018-02-21T01:13:46.834Z,73.50
2018-02-21T01:16:13.140Z,74.10
2018-02-21T01:18:40.179Z,73.20
2018-02-21T01:21:07.218Z,73.70
2018-02-21T01:23:33.485Z,73.70
2018-02-21T01:25:59.759Z,73.60
2018-02-21T01:28:26.060Z,73.70
2018-02-21T01:30:52.344Z,73.80
2018-02-21T01:33:18.595Z,73.50
2018-02-21T01:35:44.877Z,73.70
2018-02-21T01:38:11.376Z,73.80
2018-02-21T01:40:37.675Z,73.00
2018-02-21T01:43:04.771Z,74.60
2018-02-21T01:45:31.045Z,74.30
2018-02-21T01:47:57.311Z,74.70
2018-02-21T01:50:23.635Z,74.70
2018-02-21T01:52:49.909Z,74.30
2018-02-21T01:55:16.160Z,74.70
2018-02-21T01:57:43.236Z,74.50
2018-02-21T02:00:09.504Z,73.20
2018-02-21T02:02:35.784Z,74.10
2018-02-21T02:05:02.827Z,72.10
2018-02-21T02:07:29.848Z,73.80
2018-02-21T02:09:56.145Z,73.60
2018-02-21T02:12:22.409Z,74.00
2018-02-21T02:14:48.705Z,73.90
2018-02-21T02:17:14.987Z,73.60
2018-02-21T02:19:42.065Z,73.10
2018-02-21T02:22:08.320Z,72.90
2018-02-21T02:24:34.593Z,72.60
2018-02-21T02:27:00.880Z,72.80
2018-02-21T02:29:27.888Z,71.90
2018-02-21T02:31:54.936Z,72.00
2018-02-21T02:34:21.948Z,72.00
2018-02-21T02:36:48.260Z,71.90
2018-02-21T02:39:26.695Z,71.80
2018-02-21T02:41:52.988Z,71.60
2018-02-21T02:44:19.248Z,71.40
2018-02-21T02:46:45.532Z,71.50
2018-02-21T02:49:11.828Z,71.40
2018-02-21T02:51:38.863Z,71.60
2018-02-21T02:54:05.155Z,71.50
2018-02-21T02:56:31.452Z,71.20
2018-02-21T02:58:58.496Z,71.50
2018-02-21T03:01:25.544Z,70.80
2018-02-21T03:03:51.857Z,70.70
2018-02-21T03:06:18.139Z,70.80
2018-02-21T03:08:44.416Z,71.20
2018-02-21T03:11:10.701Z,71.50
2018-02-21T03:13:36.992Z,73.10
2018-02-21T03:16:04.008Z,71.20
2018-02-21T03:18:30.310Z,71.20
2018-02-21T03:20:56.587Z,71.00
2018-02-21T03:23:22.854Z,71.70
2018-02-21T03:25:49.192Z,71.10
2018-02-21T03:28:15.489Z,71.10
2018-02-21T03:30:42.527Z,71.50
2018-02-21T03:33:08.879Z,71.60
2018-02-21T03:35:35.888Z,71.70
2018-02-21T03:38:02.195Z,71.50
2018-02-21T03:40:28.467Z,72.40
2018-02-21T03:42:55.479Z,70.30
2018-02-21T03:45:21.792Z,70.30
2018-02-21T03:47:48.071Z,70.70
2018-02-21T03:50:14.375Z,71.20
2018-02-21T03:52:40.688Z,70.80
2018-02-21T03:55:06.963Z,70.90
2018-02-21T03:57:33.235Z,71.80
2018-02-21T03:59:59.521Z,72.60
2018-02-21T04:02:25.805Z,71.70
2018-02-21T04:04:52.065Z,71.50
2018-02-21T04:07:18.345Z,71.60
2018-02-21T04:09:44.662Z,70.00
2018-02-21T04:12:10.984Z,71.90
2018-02-21T04:14:38.031Z,71.90
2018-02-21T04:17:04.288Z,71.70
2018-02-21T04:19:30.564Z,71.60
2018-02-21T04:21:56.839Z,71.50
2018-02-21T04:24:23.894Z,71.40
2018-02-21T04:26:50.224Z,71.90
2018-02-21T04:29:16.483Z,71.60
2018-02-21T04:31:42.793Z,72.00
2018-02-21T04:34:09.108Z,71.60
2018-02-21T04:36:36.153Z,72.00
2018-02-21T04:39:03.224Z,71.30
2018-02-21T04:41:29.550Z,69.90
2018-02-21T04:43:55.826Z,71.50
2018-02-21T04:46:22.135Z,70.90
2018-02-21T04:48:48.440Z,70.40
2018-02-21T04:51:14.700Z,69.70
2018-02-21T04:53:40.988Z,69.80
2018-02-21T04:59:19.949Z,69.50
2018-02-21T05:01:46.267Z,69.20
2018-02-21T05:04:12.535Z,68.90
2018-02-21T05:06:38.877Z,68.80
2018-02-21T05:09:05.230Z,68.30
2018-02-21T05:11:31.499Z,68.50
2018-02-21T05:13:57.795Z,68.40
2018-02-21T05:16:24.811Z,68.20
2018-02-21T05:18:51.107Z,68.30
2018-02-21T05:21:17.384Z,68.50
2018-02-21T05:23:43.690Z,68.30
2018-02-21T05:26:09.975Z,67.80
2018-02-21T05:28:36.988Z,69.20
2018-02-21T05:31:03.334Z,68.40
2018-02-21T05:33:29.671Z,68.90
2018-02-21T05:35:56.739Z,69.20
2018-02-21T05:38:23.775Z,68.80
2018-02-21T05:40:50.793Z,69.10
2018-02-21T05:43:17.064Z,69.10
2018-02-21T05:45:43.368Z,69.40
2018-02-21T05:48:10.413Z,69.60
2018-02-21T05:50:36.728Z,69.50
2018-02-21T05:53:03.017Z,69.40
2018-02-21T05:55:29.349Z,70.00
2018-02-21T05:57:55.673Z,69.70
2018-02-21T06:00:21.995Z,70.20
2018-02-21T06:02:48.317Z,70.20
2018-02-21T06:05:14.627Z,70.40
2018-02-21T06:07:40.904Z,70.30
2018-02-21T06:10:07.234Z,70.40
2018-02-21T06:12:33.518Z,70.50
2018-02-21T06:14:59.794Z,70.60
2018-02-21T06:17:26.158Z,70.70
2018-02-21T06:19:52.459Z,70.60
2018-02-21T06:22:18.724Z,71.00
2018-02-21T06:24:45.056Z,71.20
2018-02-21T06:27:11.352Z,71.30
2018-02-21T06:29:37.989Z,71.00
2018-02-21T06:32:04.309Z,70.70
2018-02-21T06:34:30.596Z,70.70
2018-02-21T06:36:56.908Z,70.70
2018-02-21T06:39:23.216Z,70.90
2018-02-21T06:41:49.520Z,69.60
2018-02-21T06:44:15.823Z,70.80
2018-02-21T06:46:42.847Z,70.50
2018-02-21T06:49:09.175Z,70.40
2018-02-21T06:51:36.297Z,70.70
2018-02-21T06:54:02.624Z,70.70
2018-02-21T06:56:28.915Z,70.40
2018-02-21T06:58:55.204Z,70.00
2018-02-21T07:01:21.499Z,70.90
2018-02-21T07:03:48.508Z,69.80
2018-02-21T07:06:14.839Z,69.70
2018-02-21T07:08:41.120Z,70.50
2018-02-21T07:11:07.447Z,69.40
2018-02-21T07:13:33.731Z,69.70
2018-02-21T07:16:00.020Z,67.70
2018-02-21T07:18:26.342Z,66.90
2018-02-21T07:20:52.688Z,65.00
2018-02-21T07:23:18.999Z,62.90
2018-02-21T07:25:45.344Z,61.60
2018-02-21T07:28:11.652Z,61.30
2018-02-21T07:30:37.980Z,61.40
2018-02-21T07:33:04.259Z,60.90
2018-02-21T07:35:30.551Z,60.80
2018-02-21T07:37:56.871Z,60.30
2018-02-21T07:40:23.150Z,59.50
2018-02-21T07:42:49.688Z,59.40
2018-02-21T07:45:15.991Z,58.80
2018-02-21T07:47:42.304Z,57.80
2018-02-21T07:50:08.614Z,54.90
2018-02-21T07:52:34.912Z,53.20
2018-02-21T07:55:01.233Z,51.00
2018-02-21T07:57:27.534Z,51.60
2018-02-21T07:59:53.810Z,49.50
2018-02-21T08:02:20.143Z,49.30
2018-02-21T08:04:47.213Z,47.10
2018-02-21T08:07:13.787Z,46.70
2018-02-21T08:09:40.140Z,48.70
2018-02-21T08:12:06.444Z,46.20
2018-02-21T08:14:32.747Z,45.60
2018-02-21T08:16:59.766Z,49.80
2018-02-21T08:19:26.068Z,49.60
2018-02-21T08:21:52.348Z,50.20
2018-02-21T08:24:19.423Z,48.90
2018-02-21T08:26:45.728Z,48.50
2018-02-21T08:29:12.776Z,51.70
2018-02-21T08:31:39.849Z,47.30
2018-02-21T08:34:06.123Z,47.20
2018-02-21T08:36:32.429Z,42.90
2018-02-21T08:38:58.740Z,40.10
2018-02-21T08:41:25.048Z,38.00
2018-02-21T08:43:52.125Z,36.90
2018-02-21T08:46:18.456Z,36.90
2018-02-21T08:48:44.783Z,35.90
2018-02-21T08:51:11.138Z,40.20
2018-02-21T08:53:37.441Z,44.20
2018-02-21T08:56:03.768Z,45.90
2018-02-21T08:58:30.071Z,44.80
2018-02-21T09:00:56.436Z,46.10
2018-02-21T09:03:22.728Z,47.10
2018-02-21T09:05:49.065Z,46.00
2018-02-21T09:08:16.140Z,46.70
2018-02-21T09:10:42.423Z,46.70
2018-02-21T09:13:09.472Z,48.30
2018-02-21T09:15:35.788Z,48.30
2018-02-21T09:18:02.104Z,46.70
2018-02-21T09:20:28.443Z,46.00
2018-02-21T09:22:54.712Z,43.50
2018-02-21T09:25:21.762Z,45.50
2018-02-21T09:27:48.067Z,45.50
2018-02-21T09:30:14.375Z,46.20
2018-02-21T09:32:40.711Z,47.00
2018-02-21T09:35:07.007Z,48.10
2018-02-21T09:37:34.051Z,46.00
2018-02-21T09:40:00.359Z,46.00
2018-02-21T09:42:26.685Z,44.30
2018-02-21T09:44:53.052Z,41.20
2018-02-21T09:47:19.352Z,42.50
2018-02-21T09:49:46.017Z,42.30
2018-02-21T09:52:12.324Z,42.90
2018-02-21T09:54:38.608Z,44.50
2018-02-21T09:57:04.964Z,43.40
2018-02-21T09:59:31.292Z,41.70
2018-02-21T10:01:57.542Z,40.20
2018-02-21T10:04:23.824Z,41.50
2018-02-21T10:06:50.104Z,40.80
2018-02-21T10:09:16.418Z,42.70
2018-02-21T10:11:42.681Z,42.40
2018-02-21T10:14:09.709Z,40.00
2018-02-21T10:16:35.995Z,40.20
2018-02-21T10:19:02.326Z,41.50
2018-02-21T10:21:28.643Z,41.60
2018-02-21T10:23:54.935Z,43.00
2018-02-21T10:26:21.315Z,41.00
2018-02-21T10:28:47.628Z,40.50
2018-02-21T10:31:14.679Z,39.90
2018-02-21T10:33:40.991Z,40.00
2018-02-21T10:36:08.018Z,40.10
2018-02-21T10:38:34.396Z,40.00
2018-02-21T10:41:01.442Z,36.50
2018-02-21T10:43:27.733Z,35.70
2018-02-21T10:45:54.811Z,36.60
2018-02-21T10:48:21.087Z,35.90
2018-02-21T10:50:47.383Z,36.00
2018-02-21T10:53:13.744Z,33.50
2018-02-21T10:55:40.042Z,31.40
2018-02-21T10:58:06.385Z,29.80
2018-02-21T11:00:38.907Z,31.10
2018-02-21T11:03:05.992Z,29.40
2018-02-21T11:05:32.289Z,28.70
2018-02-21T11:07:58.648Z,28.00
2018-02-21T11:10:24.928Z,28.20
2018-02-21T11:12:51.252Z,28.00
2018-02-21T11:15:17.611Z,29.00
2018-02-21T11:17:43.873Z,27.90
2018-02-21T11:20:10.177Z,27.90
2018-02-21T11:22:36.472Z,30.00
2018-02-21T11:25:02.772Z,29.60
2018-02-21T11:27:29.062Z,30.00
2018-02-21T11:29:55.345Z,31.80
2018-02-21T11:32:21.624Z,31.50
2018-02-21T11:34:47.920Z,30.30
2018-02-21T11:37:14.183Z,30.10
2018-02-21T11:39:41.251Z,28.30
2018-02-21T11:42:08.271Z,27.40
2018-02-21T11:44:34.651Z,27.30
2018-02-21T11:47:00.937Z,26.90
2018-02-21T11:49:27.204Z,27.00
2018-02-21T11:51:53.532Z,27.90
2018-02-21T11:54:19.829Z,27.90
2018-02-21T11:56:46.110Z,29.20
2018-02-21T11:59:13.136Z,29.60
2018-02-21T12:01:39.395Z,29.80
2018-02-21T12:04:05.671Z,28.90
2018-02-21T12:06:31.972Z,28.00
2018-02-21T12:08:58.263Z,26.90
2018-02-21T12:11:24.560Z,25.80
2018-02-21T12:13:51.609Z,27.40
2018-02-21T12:16:17.899Z,27.30
2018-02-21T12:18:44.169Z,29.60
2018-02-21T12:21:11.224Z,31.30
2018-02-21T12:23:38.266Z,28.60
2018-02-21T12:26:05.319Z,28.00
2018-02-21T12:28:31.893Z,27.80
2018-02-21T12:30:58.207Z,26.80
2018-02-21T12:33:24.559Z,26.70
2018-02-21T12:35:50.858Z,26.40
2018-02-21T12:38:17.884Z,26.10
2018-02-21T12:40:50.212Z,26.10
2018-02-21T12:43:16.528Z,27.80
2018-02-21T12:45:42.815Z,28.20
2018-02-21T12:48:10.216Z,26.20
2018-02-21T12:50:36.510Z,26.30
2018-02-21T12:53:03.560Z,25.80
2018-02-21T12:55:30.639Z,26.40
2018-02-21T12:57:57.624Z,25.10
2018-02-21T13:00:23.948Z,25.40
2018-02-21T13:02:50.220Z,26.70
2018-02-21T13:05:16.567Z,28.20
2018-02-21T13:07:42.905Z,27.10
2018-02-21T13:10:09.205Z,26.00
2018-02-21T13:12:36.264Z,26.60
2018-02-21T13:15:02.605Z,26.40
2018-02-21T13:17:28.902Z,25.70
2018-02-21T13:19:55.247Z,25.50
2018-02-21T13:22:22.330Z,24.80
2018-02-21T13:24:48.639Z,24.50
2018-02-21T13:27:15.685Z,24.00
2018-02-21T13:29:42.753Z,25.80
2018-02-21T13:32:09.092Z,25.90
2018-02-21T13:34:35.403Z,26.90
2018-02-21T13:37:01.751Z,26.70
2018-02-21T13:39:28.055Z,25.70
2018-02-21T13:41:55.099Z,26.10
2018-02-21T13:44:22.199Z,25.50
2018-02-21T13:46:48.508Z,25.10
2018-02-21T13:49:14.866Z,25.20
2018-02-21T13:51:41.335Z,25.60
2018-02-21T13:54:07.704Z,25.60
2018-02-21T13:56:33.995Z,27.80
2018-02-21T13:59:01.115Z,27.20
2018-02-21T14:01:28.192Z,26.60
2018-02-21T14:03:55.206Z,26.50
2018-02-21T14:06:21.514Z,26.10
2018-02-21T14:08:47.788Z,26.30
2018-02-21T14:11:14.089Z,25.10
2018-02-21T14:13:40.391Z,24.40
2018-02-21T14:16:06.753Z,24.60
2018-02-21T14:18:33.073Z,24.30
2018-02-21T14:20:59.355Z,24.40
2018-02-21T14:23:26.379Z,24.60
2018-02-21T14:25:52.675Z,24.10
2018-02-21T14:28:18.954Z,25.10
2018-02-21T14:30:45.460Z,23.80
2018-02-21T14:33:11.744Z,23.10
2018-02-21T14:35:38.760Z,23.50
2018-02-21T14:38:05.048Z,23.40
2018-02-21T14:40:31.331Z,23.30
2018-02-21T14:42:58.387Z,22.80
2018-02-21T14:45:24.702Z,22.70
2018-02-21T14:47:50.987Z,22.70
2018-02-21T14:50:17.308Z,23.10
2018-02-21T14:52:43.604Z,23.10
2018-02-21T14:55:09.939Z,23.30
2018-02-21T14:57:36.960Z,25.90
2018-02-21T15:00:03.296Z,25.30
2018-02-21T15:02:29.579Z,26.50
2018-02-21T15:04:55.951Z,28.80
2018-02-21T15:07:22.251Z,28.90
2018-02-21T15:09:48.537Z,28.90
2018-02-21T15:12:15.566Z,30.50
2018-02-21T15:14:41.876Z,30.10
2018-02-21T15:17:08.147Z,30.10
2018-02-21T15:19:35.268Z,29.60
2018-02-21T15:22:02.372Z,30.00
2018-02-21T15:24:28.673Z,30.90
2018-02-21T15:26:54.964Z,29.50
2018-02-21T15:29:21.284Z,29.80
2018-02-21T15:31:47.607Z,30.00
2018-02-21T15:34:13.943Z,28.50
2018-02-21T15:36:40.192Z,28.20
2018-02-21T15:39:06.491Z,30.20
2018-02-21T15:41:32.756Z,30.90
2018-02-21T15:43:59.044Z,31.50
2018-02-21T15:46:25.308Z,30.90
2018-02-21T15:48:51.620Z,29.20
2018-02-21T15:51:17.899Z,31.40
2018-02-21T15:53:44.195Z,32.20
2018-02-21T15:56:10.480Z,33.90
2018-02-21T15:58:36.789Z,34.20
2018-02-21T16:01:03.091Z,34.60
2018-02-21T16:03:29.360Z,35.20
2018-02-21T16:05:56.426Z,36.40
2018-02-21T16:08:22.766Z,36.30
2018-02-21T16:10:49.028Z,37.10
2018-02-21T16:13:15.299Z,37.30
2018-02-21T16:15:42.340Z,38.40
2018-02-21T16:18:08.723Z,38.30
2018-02-21T16:20:35.044Z,38.50
2018-02-21T16:23:01.370Z,38.60
2018-02-21T16:25:27.732Z,39.40
2018-02-21T16:27:54.035Z,40.00
2018-02-21T16:30:20.318Z,40.50
2018-02-21T16:32:46.628Z,41.00
2018-02-21T16:35:12.891Z,41.40
2018-02-21T16:37:39.159Z,42.20
2018-02-21T16:40:05.459Z,42.40
2018-02-21T16:42:32.491Z,43.10
2018-02-21T16:44:59.612Z,43.40
2018-02-21T16:47:25.914Z,43.20
2018-02-21T16:49:52.199Z,43.60
2018-02-21T16:52:19.332Z,44.20
2018-02-21T16:54:45.648Z,44.20
2018-02-21T16:57:11.943Z,44.30
2018-02-21T16:59:38.259Z,45.90
2018-02-21T17:02:05.307Z,46.90
2018-02-21T17:04:32.332Z,47.60
2018-02-21T17:06:58.631Z,46.70
2018-02-21T17:09:24.931Z,46.40
2018-02-21T17:11:51.195Z,46.00
2018-02-21T17:14:17.808Z,46.30
2018-02-21T17:16:44.123Z,46.60
2018-02-21T17:19:10.455Z,46.10
2018-02-21T17:21:36.784Z,45.70
2018-02-21T17:24:03.060Z,48.80
2018-02-21T17:26:29.379Z,45.30
2018-02-21T17:28:55.652Z,46.40
2018-02-21T17:31:22.685Z,47.00
2018-02-21T17:33:49.056Z,46.50
2018-02-21T17:36:15.400Z,47.00
2018-02-21T17:38:42.012Z,45.20
2018-02-21T17:41:14.431Z,45.10
2018-02-21T17:43:40.728Z,44.80
2018-02-21T17:46:07.017Z,45.70
2018-02-21T17:48:33.772Z,46.00
2018-02-21T17:51:00.830Z,45.80
2018-02-21T17:53:27.123Z,45.50
2018-02-21T17:55:53.428Z,46.00
2018-02-21T17:58:19.735Z,45.90
2018-02-21T18:00:46.018Z,46.20
2018-02-21T18:03:12.353Z,46.30
2018-02-21T18:05:38.608Z,46.40
2018-02-21T18:08:05.679Z,47.00
2018-02-21T18:10:31.976Z,46.90
2018-02-21T18:12:58.245Z,47.30
2018-02-21T18:15:24.626Z,48.60
2018-02-21T18:17:51.035Z,47.70
2018-02-21T18:20:17.341Z,48.00
2018-02-21T18:22:43.637Z,48.10
2018-02-21T18:25:10.132Z,48.30
2018-02-21T18:27:36.473Z,49.20
2018-02-21T18:30:03.206Z,48.70
2018-02-21T18:32:29.497Z,49.20
2018-02-21T18:34:55.821Z,49.10
2018-02-21T18:37:22.173Z,49.40
2018-02-21T18:39:48.460Z,50.20
2018-02-21T18:42:15.599Z,50.70
2018-02-21T18:44:41.896Z,50.60
2018-02-21T18:47:08.180Z,51.00
2018-02-21T18:49:34.514Z,51.20
2018-02-21T18:52:01.536Z,51.70
2018-02-21T18:54:27.833Z,51.60
2018-02-21T18:56:54.153Z,52.00
2018-02-21T18:59:20.444Z,52.30
2018-02-21T19:01:47.516Z,53.00
2018-02-21T19:04:13.827Z,53.00
2018-02-21T19:06:40.126Z,53.00
2018-02-21T19:09:06.420Z,52.90
2018-02-21T19:11:32.716Z,53.20
2018-02-21T19:13:59.781Z,53.60
2018-02-21T19:16:26.064Z,53.70
2018-02-21T19:18:52.343Z,53.70
2018-02-21T19:21:19.396Z,54.30
2018-02-21T19:23:45.704Z,54.70
2018-02-21T19:26:12.763Z,55.20
2018-02-21T19:28:39.790Z,55.30
2018-02-21T19:31:06.100Z,55.30
2018-02-21T19:33:32.403Z,55.80
2018-02-21T19:35:58.687Z,56.20
2018-02-21T19:38:25.728Z,56.10
2018-02-21T19:40:52.972Z,56.00
2018-02-21T19:43:19.300Z,55.90
2018-02-21T19:45:45.587Z,56.60
2018-02-21T19:48:11.875Z,56.70
2018-02-21T19:50:38.445Z,57.00
2018-02-21T19:53:04.755Z,57.10
2018-02-21T19:55:31.776Z,56.80
2018-02-21T19:57:58.063Z,56.80
2018-02-21T20:00:24.344Z,57.50
2018-02-21T20:02:50.643Z,57.50
2018-02-21T20:05:16.936Z,57.50
2018-02-21T20:07:43.220Z,57.60
2018-02-21T20:10:09.530Z,57.80
2018-02-21T20:12:35.830Z,57.50
2018-02-21T20:15:02.522Z,58.20
2018-02-21T20:17:28.858Z,58.60
2018-02-21T20:19:55.163Z,58.60
2018-02-21T20:22:21.491Z,58.70
2018-02-21T20:24:47.765Z,57.40
2018-02-21T20:27:14.871Z,59.00
2018-02-21T20:29:41.144Z,59.00
2018-02-21T20:32:07.430Z,59.00
2018-02-21T20:34:33.728Z,58.70
2018-02-21T20:37:00.015Z,58.80
2018-02-21T20:39:26.632Z,59.10
2018-02-21T20:41:52.919Z,59.30
2018-02-21T20:44:19.946Z,59.60
2018-02-21T20:46:46.274Z,59.20
2018-02-21T20:49:12.545Z,59.70
2018-02-21T20:51:38.856Z,59.90
2018-02-21T20:54:06.188Z,59.90
2018-02-21T20:56:32.456Z,59.50
2018-02-21T20:58:58.823Z,59.80
2018-02-21T21:01:25.109Z,60.00
2018-02-21T21:03:51.494Z,60.50
2018-02-21T21:06:17.805Z,60.30
2018-02-21T21:08:44.097Z,60.50
2018-02-21T21:11:10.394Z,60.80
2018-02-21T21:13:38.495Z,61.00
2018-02-21T21:16:04.843Z,61.40
2018-02-21T21:18:31.187Z,61.50
2018-02-21T21:20:57.511Z,61.40
2018-02-21T21:23:23.871Z,61.90
2018-02-21T21:25:50.172Z,61.80
2018-02-21T21:28:16.480Z,61.60
2018-02-21T21:30:42.802Z,61.80
2018-02-21T21:33:09.147Z,61.80
2018-02-21T21:35:35.471Z,61.90
2018-02-21T21:38:01.815Z,62.40
2018-02-21T21:40:28.127Z,62.60
2018-02-21T21:42:55.155Z,63.00
2018-02-21T21:45:21.433Z,62.80
2018-02-21T21:47:47.777Z,63.40
2018-02-21T21:50:14.059Z,63.20
2018-02-21T21:52:40.428Z,63.30
2018-02-21T21:55:06.743Z,63.90
2018-02-21T21:57:33.008Z,63.90
2018-02-21T21:59:59.337Z,64.40
2018-02-21T22:02:25.624Z,64.20
2018-02-21T22:04:51.997Z,63.90
2018-02-21T22:07:18.259Z,64.00
2018-02-21T22:09:44.534Z,64.20
2018-02-21T22:12:10.823Z,64.80
2018-02-21T22:14:37.115Z,65.00
2018-02-21T22:17:03.508Z,65.30
2018-02-21T22:19:30.527Z,65.40
2018-02-21T22:21:56.803Z,65.30
2018-02-21T22:24:23.087Z,66.00
2018-02-21T22:26:49.667Z,65.60
2018-02-21T22:29:15.999Z,66.00
2018-02-21T22:31:42.335Z,66.20
2018-02-21T22:34:08.669Z,66.40
2018-02-21T22:36:34.949Z,65.20
2018-02-21T22:39:01.243Z,65.10
2018-02-21T22:41:27.552Z,67.80
2018-02-21T22:43:53.859Z,67.90
2018-02-21T22:46:20.915Z,68.20
2018-02-21T22:48:47.215Z,68.20
2018-02-21T22:51:13.486Z,68.00
2018-02-21T22:53:39.787Z,68.30
2018-02-21T22:56:06.065Z,68.50
2018-02-21T22:58:32.347Z,68.70
2018-02-21T23:00:59.383Z,69.00
2018-02-21T23:03:25.647Z,67.60
2018-02-21T23:05:52.219Z,69.30
2018-02-21T23:08:18.506Z,69.30
2018-02-21T23:10:45.580Z,69.30
2018-02-21T23:13:11.882Z,69.10
2018-02-21T23:15:38.890Z,69.60
2018-02-21T23:18:06.034Z,69.60
2018-02-21T23:20:32.299Z,69.40
2018-02-21T23:22:59.312Z,69.80
2018-02-21T23:25:25.624Z,69.40
2018-02-21T23:27:51.898Z,70.10
2018-02-21T23:30:18.194Z,70.20
2018-02-21T23:32:44.473Z,69.70
2018-02-21T23:35:11.489Z,69.70
2018-02-21T23:37:37.776Z,69.70
2018-02-21T23:40:04.054Z,69.70
2018-02-21T23:42:30.388Z,70.00
2018-02-21T23:44:57.448Z,70.20
2018-02-21T23:47:23.871Z,69.40
2018-02-21T23:49:50.228Z,70.30
2018-02-21T23:52:16.504Z,70.40
2018-02-21T23:54:42.823Z,70.90
2018-02-21T23:57:09.109Z,70.90
2018-02-21T23:59:35.360Z,71.20
